createdAt,value
2022-11-30T00:00:25.582Z,101427.09
2022-11-30T00:00:58.511Z,101434.22
2022-11-30T00:01:33.193Z,101436.72
2022-11-30T00:02:05.378Z,101435.88
2022-11-30T00:02:37.633Z,101430.09
2022-11-30T00:03:12.472Z,101433.59
2022-11-30T00:03:45.142Z,101429.44
2022-11-30T00:04:17.236Z,101433.94
2022-11-30T00:04:54.472Z,101426.16
2022-11-30T00:05:26.670Z,101425.50
2022-11-30T00:06:04.445Z,101420.19
2022-11-30T00:06:39.956Z,101428.34
2022-11-30T00:07:12.088Z,101429.34
2022-11-30T00:07:44.202Z,101422.38
2022-11-30T00:08:19.092Z,101431.16
2022-11-30T00:08:53.421Z,101430.19
2022-11-30T00:09:25.482Z,101426.84
2022-11-30T00:10:00.199Z,101423.56
2022-11-30T00:10:32.277Z,101421.91
2022-11-30T00:11:09.671Z,101424.72
2022-11-30T00:11:44.375Z,101424.72
2022-11-30T00:12:16.442Z,101423.91
2022-11-30T00:12:48.918Z,101422.75
2022-11-30T00:13:23.602Z,101427.03
2022-11-30T00:13:55.893Z,101425.41
2022-11-30T00:14:27.982Z,101422.91
2022-11-30T00:15:02.746Z,101424.72
2022-11-30T00:15:35.782Z,101420.25
2022-11-30T00:16:08.837Z,101426.56
2022-11-30T00:16:43.565Z,101427.38
2022-11-30T00:17:15.939Z,101422.25
2022-11-30T00:17:48.362Z,101423.06
2022-11-30T00:18:23.041Z,101424.91
2022-11-30T00:18:55.197Z,101428.38
2022-11-30T00:19:27.261Z,101429.22
2022-11-30T00:20:04.519Z,101428.22
2022-11-30T00:20:36.604Z,101429.22
2022-11-30T00:21:12.764Z,101426.38
2022-11-30T00:21:47.469Z,101422.25
2022-11-30T00:22:19.522Z,101428.59
2022-11-30T00:22:51.638Z,101429.41
2022-11-30T00:23:26.301Z,101420.63
2022-11-30T00:23:58.493Z,101423.91
2022-11-30T00:24:30.726Z,101419.59
2022-11-30T00:25:05.906Z,101421.25
2022-11-30T00:25:38.023Z,101421.25
2022-11-30T00:26:11.669Z,101420.25
2022-11-30T00:26:46.348Z,101419.59
2022-11-30T00:27:18.413Z,101418.94
2022-11-30T00:27:50.655Z,101412.16
2022-11-30T00:28:25.348Z,101414.53
2022-11-30T00:28:57.478Z,101417.34
2022-11-30T00:29:29.629Z,101413.25
2022-11-30T00:30:04.579Z,101422.84
2022-11-30T00:30:36.668Z,101412.41
2022-11-30T00:31:11.503Z,101416.69
2022-11-30T00:31:46.282Z,101425.03
2022-11-30T00:32:18.410Z,101418.06
2022-11-30T00:32:50.576Z,101417.06
2022-11-30T00:33:25.285Z,101419.72
2022-11-30T00:33:57.435Z,101421.53
2022-11-30T00:34:32.177Z,101419.72
2022-11-30T00:35:07.464Z,101417.88
2022-11-30T00:35:39.542Z,101416.06
2022-11-30T00:36:13.310Z,101420.38
2022-11-30T00:36:48.004Z,101418.56
2022-11-30T00:37:20.911Z,101415.69
2022-11-30T00:37:53.050Z,101419.19
2022-11-30T00:38:25.473Z,101416.34
2022-11-30T00:39:00.148Z,101414.34
2022-11-30T00:39:35.474Z,101412.72
2022-11-30T00:40:11.641Z,101416.34
2022-11-30T00:40:43.730Z,101413.69
2022-11-30T00:41:16.938Z,101419.03
2022-11-30T00:41:51.646Z,101413.69
2022-11-30T00:42:23.698Z,101413.69
2022-11-30T00:42:55.751Z,101414.53
2022-11-30T00:43:30.536Z,101418.66
2022-11-30T00:44:02.593Z,101423.81
2022-11-30T00:44:34.705Z,101417.47
2022-11-30T00:45:10.310Z,101422.59
2022-11-30T00:45:42.453Z,101415.47
2022-11-30T00:46:14.903Z,101417.97
2022-11-30T00:46:49.617Z,101413.47
2022-11-30T00:47:21.739Z,101408.31
2022-11-30T00:47:55.114Z,101414.94
2022-11-30T00:48:29.761Z,101413.94
2022-11-30T00:49:01.857Z,101414.75
2022-11-30T00:49:34.058Z,101419.06
2022-11-30T00:50:12.792Z,101413.72
2022-11-30T00:50:45.871Z,101413.94
2022-11-30T00:51:20.976Z,101419.88
2022-11-30T00:51:53.108Z,101411.06
2022-11-30T00:52:25.221Z,101411.75
2022-11-30T00:53:00.012Z,101413.41
2022-11-30T00:53:32.199Z,101413.41
2022-11-30T00:54:04.267Z,101413.19
2022-11-30T00:54:38.953Z,101418.34
2022-11-30T00:55:11.010Z,101411.38
2022-11-30T00:55:43.640Z,101412.19
2022-11-30T00:56:18.482Z,101411.38
2022-11-30T00:56:50.563Z,101412.03
2022-11-30T00:57:22.800Z,101404.06
2022-11-30T00:57:57.472Z,101412.03
2022-11-30T00:58:29.550Z,101412.88
2022-11-30T00:59:04.242Z,101411.88
2022-11-30T00:59:36.330Z,101407.56
2022-11-30T01:00:09.906Z,101405.06
2022-11-30T01:00:42.237Z,101408.72
2022-11-30T01:01:17.087Z,101403.59
2022-11-30T01:01:49.308Z,101408.91
2022-11-30T01:02:21.461Z,101404.59
2022-11-30T01:02:54.214Z,101400.28
2022-11-30T01:03:28.918Z,101403.78
2022-11-30T01:04:00.979Z,101401.13
2022-11-30T01:04:33.064Z,101400.13
2022-11-30T01:05:08.442Z,101395.63
2022-11-30T01:05:43.470Z,101399.91
2022-11-30T01:06:18.205Z,101400.75
2022-11-30T01:06:50.273Z,101398.09
2022-11-30T01:07:22.359Z,101397.91
2022-11-30T01:07:57.236Z,101395.44
2022-11-30T01:08:30.144Z,101397.47
2022-11-30T01:09:03.093Z,101395.97
2022-11-30T01:09:37.781Z,101391.69
2022-11-30T01:10:10.341Z,101399.81
2022-11-30T01:10:44.278Z,101397.34
2022-11-30T01:11:20.545Z,101400.00
2022-11-30T01:11:52.627Z,101398.53
2022-11-30T01:12:24.695Z,101396.69
2022-11-30T01:12:59.773Z,101401.34
2022-11-30T01:13:31.892Z,101395.03
2022-11-30T01:14:04.153Z,101396.69
2022-11-30T01:14:38.814Z,101402.84
2022-11-30T01:15:11.661Z,101399.34
2022-11-30T01:15:44.764Z,101389.72
2022-11-30T01:16:22.864Z,101400.97
2022-11-30T01:16:56.457Z,101390.56
2022-11-30T01:17:28.654Z,101394.03
2022-11-30T01:18:03.298Z,101397.69
2022-11-30T01:18:36.518Z,101395.03
2022-11-30T01:19:08.718Z,101397.69
2022-11-30T01:19:43.375Z,101391.38
2022-11-30T01:20:15.530Z,101394.88
2022-11-30T01:20:52.871Z,101390.34
2022-11-30T01:21:28.308Z,101392.84
2022-11-30T01:22:02.967Z,101399.16
2022-11-30T01:22:35.185Z,101385.03
2022-11-30T01:23:07.278Z,101392.03
2022-11-30T01:23:40.077Z,101391.84
2022-11-30T01:24:14.964Z,101400.44
2022-11-30T01:24:47.341Z,101392.47
2022-11-30T01:25:19.570Z,101394.97
2022-11-30T01:25:57.686Z,101395.81
2022-11-30T01:26:29.802Z,101393.16
2022-11-30T01:27:01.896Z,101400.28
2022-11-30T01:27:36.684Z,101396.63
2022-11-30T01:28:10.378Z,101393.16
2022-11-30T01:28:44.329Z,101390.50
2022-11-30T01:29:18.991Z,101400.28
2022-11-30T01:29:51.050Z,101393.31
2022-11-30T01:30:23.147Z,101388.00
2022-11-30T01:31:01.611Z,101395.97
2022-11-30T01:31:33.903Z,101390.03
2022-11-30T01:32:07.041Z,101392.69
2022-11-30T01:32:41.709Z,101392.69
2022-11-30T01:33:13.910Z,101397.00
2022-11-30T01:33:49.863Z,101381.84
2022-11-30T01:34:24.651Z,101390.84
2022-11-30T01:34:56.711Z,101383.72
2022-11-30T01:35:28.769Z,101381.06
2022-11-30T01:36:08.351Z,101385.16
2022-11-30T01:36:40.473Z,101377.56
2022-11-30T01:37:15.284Z,101381.06
2022-11-30T01:37:47.354Z,101389.03
2022-11-30T01:38:19.422Z,101389.19
2022-11-30T01:38:56.668Z,101383.88
2022-11-30T01:39:28.755Z,101383.22
2022-11-30T01:40:00.945Z,101381.38
2022-11-30T01:40:35.592Z,101385.72
2022-11-30T01:41:09.832Z,101389.19
2022-11-30T01:41:41.966Z,101377.75
2022-11-30T01:42:18.930Z,101373.25
2022-11-30T01:42:51.026Z,101383.22
2022-11-30T01:43:37.613Z,101377.28
2022-11-30T01:44:42.353Z,101372.28
2022-11-30T01:45:15.475Z,101377.16
2022-11-30T01:45:51.617Z,101373.31
2022-11-30T01:46:29.124Z,101376.81
2022-11-30T01:47:03.711Z,101378.63
2022-11-30T01:47:41.085Z,101373.31
2022-11-30T01:48:13.239Z,101384.94
2022-11-30T01:48:45.865Z,101382.47
2022-11-30T01:49:25.429Z,101378.97
2022-11-30T01:50:02.938Z,101381.84
2022-11-30T01:50:36.375Z,101377.50
2022-11-30T01:51:13.750Z,101377.50
2022-11-30T01:51:49.289Z,101383.66
2022-11-30T01:52:25.040Z,101379.19
2022-11-30T01:53:00.533Z,101381.84
2022-11-30T01:53:32.631Z,101378.50
2022-11-30T01:54:07.789Z,101383.00
2022-11-30T01:54:50.024Z,101379.50
2022-11-30T01:55:26.525Z,101382.38
2022-11-30T01:55:58.973Z,101381.53
2022-11-30T01:56:33.758Z,101385.19
2022-11-30T01:57:11.469Z,101383.19
2022-11-30T01:57:50.019Z,101385.84
2022-11-30T01:58:27.046Z,101384.81
2022-11-30T01:58:59.177Z,101385.47
2022-11-30T01:59:34.305Z,101389.78
2022-11-30T02:00:10.298Z,101384.28
2022-11-30T02:00:54.305Z,101385.66
2022-11-30T02:01:26.520Z,101385.84
2022-11-30T02:01:59.246Z,101391.50
2022-11-30T02:02:40.559Z,101382.06
2022-11-30T02:03:17.891Z,101390.41
2022-11-30T02:03:57.190Z,101386.91
2022-11-30T02:04:34.443Z,101387.06
2022-11-30T02:05:07.939Z,101388.91
2022-11-30T02:05:41.599Z,101394.03
2022-11-30T02:06:19.102Z,101385.88
2022-11-30T02:06:51.279Z,101388.53
2022-11-30T02:07:23.494Z,101398.16
2022-11-30T02:07:58.899Z,101386.53
2022-11-30T02:08:31.999Z,101387.38
2022-11-30T02:09:04.336Z,101396.34
2022-11-30T02:09:44.767Z,101392.84
2022-11-30T02:10:17.262Z,101399.06
2022-11-30T02:10:56.302Z,101393.91
2022-11-30T02:11:28.557Z,101395.56
2022-11-30T02:12:03.076Z,101397.22
2022-11-30T02:12:46.269Z,101392.75
2022-11-30T02:13:56.300Z,101397.22
2022-11-30T02:14:36.862Z,101393.91
2022-11-30T02:15:12.908Z,101401.88
2022-11-30T02:15:54.350Z,101399.88
2022-11-30T02:16:37.596Z,101405.38
2022-11-30T02:17:18.888Z,101398.59
2022-11-30T02:17:58.193Z,101401.56
2022-11-30T02:18:41.621Z,101400.78
2022-11-30T02:19:38.443Z,101399.13
2022-11-30T02:20:35.991Z,101401.09
2022-11-30T02:21:19.485Z,101401.94
2022-11-30T02:22:00.011Z,101405.59
2022-11-30T02:22:50.312Z,101400.13
2022-11-30T02:23:47.860Z,101404.59
2022-11-30T02:24:37.764Z,101402.09
2022-11-30T02:25:23.249Z,101402.31
2022-11-30T02:26:05.619Z,101405.13
2022-11-30T02:26:55.008Z,101401.00
2022-11-30T02:27:45.508Z,101401.31
2022-11-30T02:28:46.377Z,101407.81
2022-11-30T02:29:25.380Z,101392.72
2022-11-30T02:30:02.113Z,101398.69
2022-11-30T02:30:37.622Z,101400.34
2022-11-30T02:31:17.857Z,101399.97
2022-11-30T02:31:57.419Z,101403.47
2022-11-30T02:32:37.591Z,101401.16
2022-11-30T02:33:15.460Z,101398.34
2022-11-30T02:33:50.171Z,101396.53
2022-11-30T02:34:28.567Z,101399.97
2022-11-30T02:35:03.448Z,101395.31
2022-11-30T02:35:43.081Z,101395.50
2022-11-30T02:36:15.650Z,101391.22
2022-11-30T02:36:48.655Z,101389.56
2022-11-30T02:37:26.433Z,101390.38
2022-11-30T02:38:01.262Z,101390.38
2022-11-30T02:38:34.217Z,101393.03
2022-11-30T02:39:10.061Z,101391.00
2022-11-30T02:39:43.345Z,101384.72
2022-11-30T02:40:18.623Z,101394.13
2022-11-30T02:40:53.333Z,101399.28
2022-11-30T02:41:25.518Z,101396.63
2022-11-30T02:41:57.620Z,101406.25
2022-11-30T02:42:32.324Z,101401.56
2022-11-30T02:43:06.792Z,101405.88
2022-11-30T02:43:42.033Z,101401.41
2022-11-30T02:44:15.382Z,101402.06
2022-11-30T02:44:54.035Z,101395.94
2022-11-30T02:45:31.781Z,101407.19
2022-11-30T02:46:11.570Z,101404.53
2022-11-30T02:47:07.804Z,101406.34
2022-11-30T02:47:45.793Z,101402.25
2022-11-30T02:48:21.772Z,101407.56
2022-11-30T02:49:08.001Z,101404.91
2022-11-30T02:49:48.120Z,101411.19
2022-11-30T02:50:25.819Z,101405.06
2022-11-30T02:51:05.081Z,101411.19
2022-11-30T02:51:38.979Z,101403.25
2022-11-30T02:52:13.013Z,101399.41
2022-11-30T02:52:48.636Z,101404.53
2022-11-30T02:53:21.334Z,101401.72
2022-11-30T02:53:54.486Z,101406.19
2022-11-30T02:54:26.572Z,101405.19
2022-11-30T02:55:06.747Z,101400.72
2022-11-30T02:55:38.843Z,101401.25
2022-11-30T02:56:10.953Z,101406.88
2022-11-30T02:56:43.036Z,101401.94
2022-11-30T02:57:17.704Z,101403.59
2022-11-30T02:57:49.842Z,101401.47
2022-11-30T02:58:22.841Z,101405.13
2022-11-30T02:59:00.212Z,101404.28
2022-11-30T02:59:32.699Z,101399.34
2022-11-30T03:00:08.636Z,101401.16
2022-11-30T03:00:43.302Z,101398.50
2022-11-30T03:01:15.511Z,101397.69
2022-11-30T03:01:47.741Z,101400.34
2022-11-30T03:02:22.576Z,101396.69
2022-11-30T03:02:55.237Z,101404.47
2022-11-30T03:03:27.322Z,101402.63
2022-11-30T03:03:59.479Z,101400.16
2022-11-30T03:04:34.165Z,101395.69
2022-11-30T03:05:07.043Z,101401.00
2022-11-30T03:05:39.244Z,101399.34
2022-11-30T03:06:13.942Z,101395.03
2022-11-30T03:06:46.050Z,101394.84
2022-11-30T03:07:20.815Z,101402.00
2022-11-30T03:07:53.059Z,101399.97
2022-11-30T03:08:25.246Z,101399.81
2022-11-30T03:09:00.021Z,101404.97
2022-11-30T03:09:32.149Z,101405.94
2022-11-30T03:10:05.732Z,101404.97
2022-11-30T03:10:40.598Z,101397.00
2022-11-30T03:11:12.786Z,101403.97
2022-11-30T03:11:44.874Z,101403.75
2022-11-30T03:12:19.564Z,101402.59
2022-11-30T03:12:51.804Z,101407.72
2022-11-30T03:13:23.877Z,101407.56
2022-11-30T03:14:01.301Z,101410.22
2022-11-30T03:14:33.416Z,101407.56
2022-11-30T03:15:06.420Z,101400.59
2022-11-30T03:15:38.518Z,101402.25
2022-11-30T03:16:15.265Z,101403.06
2022-11-30T03:16:48.222Z,101411.88
2022-11-30T03:17:20.332Z,101405.53
2022-11-30T03:17:55.218Z,101411.03
2022-11-30T03:18:27.308Z,101409.75
2022-11-30T03:18:59.582Z,101404.59
2022-11-30T03:19:34.321Z,101409.06
2022-11-30T03:20:08.207Z,101408.06
2022-11-30T03:20:41.053Z,101398.44
2022-11-30T03:21:16.356Z,101407.25
2022-11-30T03:21:48.436Z,101406.25
2022-11-30T03:22:20.891Z,101401.78
2022-11-30T03:22:55.575Z,101399.75
2022-11-30T03:23:30.116Z,101396.94
2022-11-30T03:24:02.190Z,101388.81
2022-11-30T03:24:36.926Z,101385.13
2022-11-30T03:25:09.595Z,101381.47
2022-11-30T03:25:41.658Z,101372.13
2022-11-30T03:26:13.723Z,101375.25
2022-11-30T03:26:49.073Z,101372.59
2022-11-30T03:27:21.194Z,101369.78
2022-11-30T03:27:53.283Z,101374.09
2022-11-30T03:28:28.404Z,101373.09
2022-11-30T03:29:03.304Z,101367.78
2022-11-30T03:29:38.398Z,101380.25
2022-11-30T03:30:11.530Z,101376.09
2022-11-30T03:30:48.774Z,101378.13
2022-11-30T03:31:23.553Z,101382.75
2022-11-30T03:31:55.690Z,101377.66
2022-11-30T03:32:27.829Z,101389.06
2022-11-30T03:32:59.953Z,101382.97
2022-11-30T03:33:34.708Z,101381.28
2022-11-30T03:34:06.768Z,101387.44
2022-11-30T03:34:38.928Z,101381.28
2022-11-30T03:35:13.619Z,101383.13
2022-11-30T03:35:45.872Z,101393.91
2022-11-30T03:36:17.921Z,101396.75
2022-11-30T03:36:52.584Z,101399.59
2022-11-30T03:37:24.716Z,101405.72
2022-11-30T03:37:57.668Z,101403.06
2022-11-30T03:38:30.533Z,101399.41
2022-11-30T03:39:05.534Z,101408.19
2022-11-30T03:39:37.631Z,101407.38
2022-11-30T03:40:11.666Z,101413.34
2022-11-30T03:40:43.713Z,101407.19
2022-11-30T03:41:20.001Z,101407.84
2022-11-30T03:41:52.343Z,101400.06
2022-11-30T03:42:24.465Z,101404.53
2022-11-30T03:42:56.596Z,101408.19
2022-11-30T03:43:31.532Z,101400.41
2022-11-30T03:44:06.192Z,101399.59
2022-11-30T03:44:38.301Z,101403.06
2022-11-30T03:45:14.030Z,101403.06
2022-11-30T03:45:46.712Z,101392.63
2022-11-30T03:46:18.867Z,101389.97
2022-11-30T03:46:53.648Z,101378.50
2022-11-30T03:47:25.813Z,101386.47
2022-11-30T03:47:57.901Z,101388.13
2022-11-30T03:48:33.155Z,101396.94
2022-11-30T03:49:05.972Z,101394.28
2022-11-30T03:49:38.044Z,101391.97
2022-11-30T03:50:13.472Z,101384.34
2022-11-30T03:50:49.802Z,101384.19
2022-11-30T03:51:21.884Z,101390.31
2022-11-30T03:51:56.538Z,101386.66
2022-11-30T03:52:28.697Z,101384.66
2022-11-30T03:53:00.757Z,101381.00
2022-11-30T03:53:33.542Z,101389.59
2022-11-30T03:54:08.481Z,101385.31
2022-11-30T03:54:40.552Z,101389.78
2022-11-30T03:55:12.781Z,101400.22
2022-11-30T03:55:47.555Z,101398.22
2022-11-30T03:56:19.859Z,101394.91
2022-11-30T03:56:51.924Z,101393.44
2022-11-30T03:57:26.595Z,101399.59
2022-11-30T03:57:58.697Z,101390.78
2022-11-30T03:58:30.820Z,101390.94
2022-11-30T03:59:08.165Z,101388.97
2022-11-30T03:59:40.221Z,101385.66
2022-11-30T04:00:13.702Z,101390.94
2022-11-30T04:00:48.377Z,101394.28
2022-11-30T04:01:23.111Z,101395.09
2022-11-30T04:01:57.920Z,101395.94
2022-11-30T04:02:30.107Z,101388.81
2022-11-30T04:03:02.293Z,101388.59
2022-11-30T04:03:35.096Z,101383.28
2022-11-30T04:04:10.287Z,101388.44
2022-11-30T04:04:42.351Z,101394.56
2022-11-30T04:05:14.435Z,101393.59
2022-11-30T04:05:47.681Z,101387.25
2022-11-30T04:06:23.878Z,101388.91
2022-11-30T04:06:55.955Z,101386.25
2022-11-30T04:07:28.045Z,101383.59
2022-11-30T04:08:00.181Z,101382.59
2022-11-30T04:08:35.191Z,101388.38
2022-11-30T04:09:07.505Z,101382.44
2022-11-30T04:09:39.618Z,101383.44
2022-11-30T04:10:12.148Z,101380.31
2022-11-30T04:10:50.005Z,101378.81
2022-11-30T04:11:22.129Z,101387.31
2022-11-30T04:11:54.210Z,101387.31
2022-11-30T04:12:28.856Z,101385.31
2022-11-30T04:13:00.975Z,101378.97
2022-11-30T04:13:34.758Z,101385.78
2022-11-30T04:14:12.253Z,101389.06
2022-11-30T04:14:44.526Z,101388.28
2022-11-30T04:15:17.117Z,101386.25
2022-11-30T04:15:50.702Z,101386.25
2022-11-30T04:16:25.419Z,101382.59
2022-11-30T04:16:57.618Z,101386.91
2022-11-30T04:17:29.694Z,101385.88
2022-11-30T04:18:02.236Z,101383.06
2022-11-30T04:18:38.679Z,101385.72
2022-11-30T04:19:10.804Z,101376.91
2022-11-30T04:19:45.540Z,101379.56
2022-11-30T04:20:17.754Z,101385.72
2022-11-30T04:20:50.629Z,101388.19
2022-11-30T04:21:25.339Z,101395.81
2022-11-30T04:21:57.499Z,101392.53
2022-11-30T04:22:29.608Z,101388.19
2022-11-30T04:23:01.685Z,101390.19
2022-11-30T04:23:38.371Z,101386.72
2022-11-30T04:24:10.423Z,101385.88
2022-11-30T04:24:42.492Z,101387.53
2022-11-30T04:25:17.473Z,101390.41
2022-11-30T04:25:49.658Z,101389.91
2022-11-30T04:26:21.737Z,101397.22
2022-11-30T04:26:56.384Z,101399.69
2022-11-30T04:27:29.037Z,101399.06
2022-11-30T04:28:01.100Z,101395.75
2022-11-30T04:28:36.105Z,101389.59
2022-11-30T04:29:11.259Z,101392.25
2022-11-30T04:29:43.385Z,101396.75
2022-11-30T04:30:18.684Z,101392.25
2022-11-30T04:30:50.778Z,101395.94
2022-11-30T04:31:22.952Z,101395.09
2022-11-30T04:31:57.730Z,101400.59
2022-11-30T04:32:29.818Z,101396.94
2022-11-30T04:33:02.350Z,101395.28
2022-11-30T04:33:37.027Z,101394.91
2022-11-30T04:34:09.752Z,101400.41
2022-11-30T04:34:41.915Z,101394.28
2022-11-30T04:35:14.112Z,101393.59
2022-11-30T04:35:51.037Z,101395.63
2022-11-30T04:36:23.193Z,101389.50
2022-11-30T04:37:00.133Z,101391.69
2022-11-30T04:37:35.197Z,101397.16
2022-11-30T04:38:07.260Z,101394.66
2022-11-30T04:38:39.447Z,101397.31
2022-11-30T04:39:14.134Z,101391.00
2022-11-30T04:39:46.685Z,101388.56
2022-11-30T04:40:18.952Z,101400.63
2022-11-30T04:40:53.701Z,101396.16
2022-11-30T04:41:25.849Z,101400.63
2022-11-30T04:41:57.935Z,101397.31
2022-11-30T04:42:32.615Z,101395.69
2022-11-30T04:43:04.687Z,101402.34
2022-11-30T04:43:37.411Z,101397.22
2022-11-30T04:44:14.757Z,101400.03
2022-11-30T04:44:47.017Z,101401.22
2022-11-30T04:45:19.318Z,101404.88
2022-11-30T04:45:51.837Z,101401.03
2022-11-30T04:46:26.611Z,101404.50
2022-11-30T04:46:58.936Z,101398.19
2022-11-30T04:47:31.044Z,101398.03
2022-11-30T04:48:05.833Z,101400.50
2022-11-30T04:48:38.175Z,101400.50
2022-11-30T04:49:12.872Z,101400.69
2022-11-30T04:49:45.000Z,101402.69
2022-11-30T04:50:17.150Z,101403.69
2022-11-30T04:50:51.840Z,101402.88
2022-11-30T04:51:23.927Z,101399.38
2022-11-30T04:51:56.045Z,101402.69
2022-11-30T04:52:30.809Z,101398.03
2022-11-30T04:53:03.795Z,101409.13
2022-11-30T04:53:37.168Z,101401.16
2022-11-30T04:54:12.019Z,101399.97
2022-11-30T04:54:44.206Z,101409.59
2022-11-30T04:55:19.399Z,101409.44
2022-11-30T04:55:54.050Z,101407.59
2022-11-30T04:56:26.135Z,101407.59
2022-11-30T04:56:58.254Z,101407.59
2022-11-30T04:57:33.305Z,101404.97
2022-11-30T04:58:05.461Z,101408.06
2022-11-30T04:58:38.823Z,101407.91
2022-11-30T04:59:16.072Z,101410.38
2022-11-30T04:59:48.149Z,101405.25
2022-11-30T05:00:21.180Z,101413.03
2022-11-30T05:00:57.128Z,101410.56
2022-11-30T05:01:29.316Z,101410.56
2022-11-30T05:02:01.517Z,101419.38
2022-11-30T05:02:36.358Z,101417.50
2022-11-30T05:03:08.416Z,101417.50
2022-11-30T05:03:40.570Z,101420.34
2022-11-30T05:04:15.354Z,101420.41
2022-11-30T05:04:47.770Z,101425.06
2022-11-30T05:05:20.198Z,101418.28
2022-11-30T05:05:54.846Z,101423.41
2022-11-30T05:06:26.934Z,101415.28
2022-11-30T05:06:59.003Z,101410.78
2022-11-30T05:07:33.782Z,101426.53
2022-11-30T05:08:05.985Z,101414.28
2022-11-30T05:08:40.629Z,101421.22
2022-11-30T05:09:12.719Z,101416.94
2022-11-30T05:09:44.777Z,101422.88
2022-11-30T05:10:19.802Z,101425.19
2022-11-30T05:10:53.475Z,101410.91
2022-11-30T05:11:25.676Z,101425.84
2022-11-30T05:11:57.793Z,101422.19
2022-11-30T05:12:32.491Z,101423.84
2022-11-30T05:13:04.770Z,101433.44
2022-11-30T05:13:36.894Z,101427.13
2022-11-30T05:14:11.556Z,101428.78
2022-11-30T05:14:46.398Z,101426.97
2022-11-30T05:15:18.782Z,101419.16
2022-11-30T05:15:53.909Z,101428.78
2022-11-30T05:16:26.229Z,101422.81
2022-11-30T05:16:58.401Z,101425.47
2022-11-30T05:17:33.063Z,101423.66
2022-11-30T05:18:05.345Z,101430.78
2022-11-30T05:18:37.433Z,101428.31
2022-11-30T05:19:12.860Z,101432.97
2022-11-30T05:19:44.942Z,101436.81
2022-11-30T05:20:17.346Z,101427.19
2022-11-30T05:20:52.915Z,101433.50
2022-11-30T05:21:24.997Z,101436.50
2022-11-30T05:21:57.271Z,101435.84
2022-11-30T05:22:29.339Z,101435.00
2022-11-30T05:23:03.973Z,101433.19
2022-11-30T05:23:36.075Z,101432.34
2022-11-30T05:24:09.282Z,101437.50
2022-11-30T05:24:44.012Z,101441.16
2022-11-30T05:25:16.312Z,101436.03
2022-11-30T05:25:48.600Z,101434.84
2022-11-30T05:26:23.296Z,101436.50
2022-11-30T05:26:55.437Z,101431.19
2022-11-30T05:27:27.574Z,101434.69
2022-11-30T05:27:59.774Z,101436.50
2022-11-30T05:28:34.446Z,101440.81
2022-11-30T05:29:07.415Z,101439.00
2022-11-30T05:29:39.525Z,101438.16
2022-11-30T05:30:17.460Z,101443.28
2022-11-30T05:30:49.542Z,101446.75
2022-11-30T05:31:21.681Z,101443.94
2022-11-30T05:31:56.388Z,101444.78
2022-11-30T05:32:28.455Z,101441.94
2022-11-30T05:33:00.552Z,101437.28
2022-11-30T05:33:35.735Z,101438.94
2022-11-30T05:34:07.926Z,101448.91
2022-11-30T05:34:50.022Z,101447.75
2022-11-30T05:35:25.596Z,101449.56
2022-11-30T05:35:57.736Z,101448.75
2022-11-30T05:36:29.829Z,101452.84
2022-11-30T05:37:04.483Z,101451.03
2022-11-30T05:37:36.599Z,101452.22
2022-11-30T05:38:08.765Z,101455.72
2022-11-30T05:38:43.503Z,101444.88
2022-11-30T05:39:15.612Z,101447.75
2022-11-30T05:39:47.828Z,101446.09
2022-11-30T05:40:22.488Z,101445.25
2022-11-30T05:41:00.657Z,101447.06
2022-11-30T05:41:35.716Z,101454.03
2022-11-30T05:42:07.816Z,101451.38
2022-11-30T05:42:39.961Z,101442.59
2022-11-30T05:43:14.729Z,101447.06
2022-11-30T05:43:46.837Z,101445.41
2022-11-30T05:44:18.984Z,101446.25
2022-11-30T05:44:53.652Z,101449.09
2022-11-30T05:45:29.057Z,101448.91
2022-11-30T05:46:01.597Z,101452.38
2022-11-30T05:46:40.811Z,101451.38
2022-11-30T05:47:13.560Z,101449.91
2022-11-30T05:47:45.668Z,101448.06
2022-11-30T05:48:20.297Z,101450.56
2022-11-30T05:48:52.445Z,101446.09
2022-11-30T05:49:24.533Z,101446.91
2022-11-30T05:49:59.185Z,101443.25
2022-11-30T05:50:31.441Z,101446.56
2022-11-30T05:51:07.474Z,101450.88
2022-11-30T05:51:42.827Z,101449.03
2022-11-30T05:52:14.908Z,101449.69
2022-11-30T05:52:47.094Z,101448.53
2022-11-30T05:53:21.849Z,101445.88
2022-11-30T05:53:54.221Z,101447.84
2022-11-30T05:54:26.347Z,101445.03
2022-11-30T05:55:01.210Z,101439.72
2022-11-30T05:55:33.953Z,101446.03
2022-11-30T05:56:08.100Z,101446.84
2022-11-30T05:56:42.842Z,101441.53
2022-11-30T05:57:14.931Z,101445.88
2022-11-30T05:57:47.019Z,101446.69
2022-11-30T05:58:21.691Z,101451.16
2022-11-30T06:58:57.914Z,101486.88
2022-11-30T06:59:30.116Z,101488.25
2022-11-30T07:00:02.647Z,101489.44
2022-11-30T07:00:37.873Z,101480.81
2022-11-30T12:18:50.346Z,101457.56
2022-11-30T12:19:27.254Z,101454.59
2022-11-30T12:20:14.441Z,101450.44
2022-11-30T12:20:54.718Z,101452.28
2022-11-30T12:21:40.158Z,101454.78
2022-11-30T12:22:35.207Z,101454.59
2022-11-30T12:23:22.840Z,101456.25
2022-11-30T12:24:22.343Z,101457.91
2022-11-30T12:25:15.569Z,101458.72
2022-11-30T12:25:57.793Z,101463.72
2022-11-30T12:26:36.892Z,101456.22
2022-11-30T12:27:20.407Z,101462.81
2022-11-30T12:28:01.428Z,101462.81
2022-11-30T12:28:46.494Z,101462.00
2022-11-30T12:29:23.406Z,101460.69
2022-11-30T12:30:10.134Z,101453.72
2022-11-30T12:30:54.446Z,101466.38
2022-11-30T12:31:35.642Z,101457.56
2022-11-30T12:32:20.654Z,101458.72
2022-11-30T12:33:10.484Z,101458.91
2022-11-30T12:33:59.114Z,101465.03
2022-11-30T12:34:51.141Z,101455.91
2022-11-30T12:35:34.430Z,101463.88
2022-11-30T12:36:16.961Z,101463.50
2022-11-30T12:37:00.931Z,101454.19
2022-11-30T12:37:49.224Z,101464.47
2022-11-30T12:38:32.122Z,101463.34
2022-11-30T12:39:15.124Z,101462.50
2022-11-30T12:39:57.306Z,101463.19
2022-11-30T12:40:43.518Z,101462.16
2022-11-30T12:41:40.319Z,101457.66
2022-11-30T12:42:19.219Z,101466.09
2022-11-30T12:43:03.520Z,101462.91
2022-11-30T12:43:47.391Z,101463.59
2022-11-30T12:44:42.108Z,101464.06
2022-11-30T12:45:23.896Z,101466.53
2022-11-30T12:46:08.915Z,101465.81
2022-11-30T12:46:52.674Z,101462.00
2022-11-30T12:47:42.401Z,101458.34
2022-11-30T12:48:26.044Z,101461.00
2022-11-30T12:49:21.391Z,101460.50
2022-11-30T12:50:06.212Z,101474.97
2022-11-30T12:50:51.713Z,101472.69
2022-11-30T12:51:30.341Z,101469.19
2022-11-30T12:52:19.613Z,101472.69
2022-11-30T12:53:04.259Z,101463.69
2022-11-30T12:53:44.779Z,101463.53
2022-11-30T12:54:25.584Z,101470.34
2022-11-30T12:55:07.731Z,101466.84
2022-11-30T12:55:46.139Z,101468.47
2022-11-30T12:56:32.229Z,101468.47
2022-11-30T12:57:13.363Z,101465.00
2022-11-30T12:57:56.366Z,101459.50
2022-11-30T12:58:38.711Z,101465.81
2022-11-30T12:59:24.472Z,101456.22
2022-11-30T13:00:06.243Z,101464.00